Boonville, Indiana
Current Conditions -  °F | °C
As of 11:54 AM on Thursday 27 Nov 2014 (Local Time) from KEVV Reporting Station
Broken Clouds Broken Clouds  
Wind Chill: 23°   Ceiling: 2000
Heat Index: 31°   Visibility: 8mi
Dew Point: 22°   Wind: 9mph
Humidity: 69%   Direction: 290°WNW
Pressure: 30.44"   Gusts: NA
Location:  38.05°N, 87.27°W
Report Text: KEVV 271754Z 29008KT 260V330 8SM BKN020 M01/M06 A3044 RMK AO2 SLP312 T10061056 10000 21022 50004
Loading
Personal Weather Stations






























Interactive Weather Map New forecast layout! Learn more

10-Day Weather Forecast

Advertisements
Track Severe Weather on mobile